createdAt,value
2022-11-16T00:01:47.302Z,21.33
2022-11-16T03:13:44.567Z,8.95
2022-11-16T03:16:27.282Z,8.20
2022-11-16T03:18:56.888Z,7.65
2022-11-16T03:21:56.582Z,7.90
2022-11-16T03:27:26.937Z,6.78
2022-11-16T03:30:06.555Z,7.47
2022-11-16T03:32:50.777Z,6.97
2022-11-16T03:35:23.268Z,8.15
2022-11-16T03:37:53.963Z,7.25
2022-11-16T03:40:24.435Z,9.32
2022-11-16T03:42:53.207Z,9.10
2022-11-16T03:45:21.327Z,9.82
2022-11-16T03:47:50.806Z,9.18
2022-11-16T03:50:18.272Z,9.30
2022-11-16T03:52:45.266Z,8.85
2022-11-16T03:55:13.923Z,9.23
2022-11-16T03:57:42.803Z,10.20
2022-11-16T04:00:10.867Z,9.82
2022-11-16T04:02:40.639Z,9.70
2022-11-16T04:05:28.897Z,9.50
2022-11-16T04:08:14.401Z,8.70
2022-11-16T04:10:59.867Z,7.50
2022-11-16T04:13:50.661Z,7.57
2022-11-16T04:16:38.253Z,7.72
2022-11-16T04:19:28.116Z,8.48
2022-11-16T04:22:23.442Z,9.18
2022-11-16T04:24:54.986Z,9.57
2022-11-16T04:27:47.135Z,10.13
2022-11-16T04:30:14.797Z,11.05
2022-11-16T04:33:01.559Z,10.70
2022-11-16T04:35:47.208Z,11.23
2022-11-16T04:38:14.608Z,13.75
2022-11-16T04:40:41.615Z,12.85
2022-11-16T04:43:11.589Z,9.73
2022-11-16T04:46:17.460Z,9.30
2022-11-16T04:48:44.615Z,9.75
2022-11-16T04:51:11.755Z,10.50
2022-11-16T04:53:39.350Z,9.60
2022-11-16T04:56:19.256Z,10.52
2022-11-16T04:58:47.121Z,8.57
2022-11-16T05:01:14.822Z,8.20
2022-11-16T05:03:42.583Z,8.50
2022-11-16T05:06:09.591Z,8.02
2022-11-16T05:08:36.879Z,7.50
2022-11-16T05:11:05.422Z,6.65
2022-11-16T05:13:32.989Z,6.40
2022-11-16T05:16:01.476Z,7.55
2022-11-16T05:18:28.531Z,7.90
2022-11-16T05:21:02.070Z,5.97
2022-11-16T05:23:52.838Z,4.95
2022-11-16T05:26:22.387Z,5.00
2022-11-16T05:28:51.081Z,4.32
2022-11-16T05:31:18.284Z,4.30
2022-11-16T05:33:45.307Z,4.53
2022-11-16T05:36:14.375Z,5.45
2022-11-16T05:38:41.342Z,6.65
2022-11-16T05:41:08.318Z,7.53
2022-11-16T05:43:35.347Z,7.53
2022-11-16T05:46:14.449Z,8.57
2022-11-16T05:48:41.909Z,8.15
2022-11-16T05:51:08.800Z,8.90
2022-11-16T05:53:35.736Z,8.98
2022-11-16T05:56:04.358Z,8.50
2022-11-16T07:24:51.073Z,3.22
2022-11-16T07:29:50.079Z,3.33
2022-11-16T07:32:35.765Z,2.95
2022-11-16T07:35:18.179Z,3.83
2022-11-16T07:37:45.137Z,3.90
2022-11-16T07:40:14.753Z,7.22
2022-11-16T07:42:44.482Z,5.13
2022-11-16T07:45:25.564Z,4.05
2022-11-16T07:48:00.731Z,3.70
2022-11-16T07:50:46.049Z,4.05
2022-11-16T07:53:13.138Z,3.85
2022-11-16T07:55:40.284Z,3.85
2022-11-16T07:58:08.033Z,3.60
2022-11-16T08:00:35.677Z,6.25
2022-11-16T08:03:11.939Z,4.25
2022-11-16T08:05:39.314Z,4.47
2022-11-16T08:08:06.945Z,4.40
2022-11-16T08:10:36.723Z,6.22
2022-11-16T08:13:04.657Z,5.32
2022-11-16T08:47:38.982Z,4.43
2022-11-16T08:50:08.460Z,3.25
2022-11-16T08:52:35.456Z,4.28
2022-11-16T08:55:04.817Z,4.18
2022-11-16T08:57:32.934Z,4.90
2022-11-16T09:00:04.816Z,5.40
2022-11-16T09:02:31.720Z,4.93
2022-11-16T09:04:58.635Z,4.88
2022-11-16T09:07:25.697Z,4.28
2022-11-16T09:09:52.648Z,4.35
2022-11-16T09:12:19.986Z,4.22
2022-11-16T09:14:47.002Z,4.28
2022-11-16T09:17:16.578Z,3.60
2022-11-16T09:19:47.190Z,3.60
2022-11-16T09:22:14.087Z,3.50
2022-11-16T09:24:41.013Z,3.22
2022-11-16T09:27:08.075Z,4.00
2022-11-16T09:29:34.997Z,5.35
2022-11-16T09:32:03.941Z,4.65
2022-11-16T09:34:30.891Z,4.82
2022-11-16T09:36:57.889Z,4.72
2022-11-16T09:39:31.035Z,5.13
2022-11-16T09:42:10.524Z,5.28
2022-11-16T09:44:56.547Z,4.82
2022-11-16T09:47:57.530Z,4.88
2022-11-16T09:50:44.280Z,4.03
2022-11-16T09:53:37.548Z,5.22
2022-11-16T09:56:22.282Z,4.53
2022-11-16T09:59:15.052Z,3.80
2022-11-16T10:01:49.039Z,4.75
2022-11-16T10:04:37.017Z,3.92
2022-11-16T10:07:12.140Z,4.10
2022-11-16T10:09:39.189Z,4.50
2022-11-16T10:12:21.743Z,4.22
2022-11-16T10:15:04.852Z,4.85
2022-11-16T10:18:08.715Z,4.30
2022-11-16T10:21:00.234Z,4.80
2022-11-16T10:23:57.739Z,4.35
2022-11-16T10:26:43.401Z,4.10
2022-11-16T10:29:38.439Z,4.05
2022-11-16T10:32:31.231Z,5.78
2022-11-16T10:35:15.850Z,3.83
2022-11-16T10:37:49.486Z,4.30
2022-11-16T10:40:29.139Z,3.17
2022-11-16T10:43:13.707Z,2.83
2022-11-16T10:46:00.030Z,3.72
2022-11-16T10:49:02.084Z,4.55
2022-11-16T10:51:28.991Z,3.85
2022-11-16T10:53:57.112Z,3.20
2022-11-16T10:56:40.675Z,3.63
2022-11-16T10:59:13.565Z,4.50
2022-11-16T11:01:50.349Z,3.20
2022-11-16T11:04:27.385Z,3.28
2022-11-16T11:06:59.081Z,4.40
2022-11-16T11:09:36.539Z,4.03
2022-11-16T11:15:11.638Z,5.30
2022-11-16T11:17:41.454Z,6.72
2022-11-16T11:20:24.407Z,7.32
2022-11-16T11:23:04.448Z,7.43
2022-11-16T11:25:33.035Z,7.00
2022-11-16T11:28:16.628Z,6.45
2022-11-16T11:30:54.851Z,6.97
2022-11-16T11:33:23.771Z,9.88
2022-11-16T11:36:03.114Z,11.38
2022-11-16T11:38:30.692Z,7.45
2022-11-16T11:41:00.407Z,6.75
2022-11-16T11:43:29.411Z,7.03
2022-11-16T11:46:20.030Z,6.22
2022-11-16T11:49:04.839Z,6.35
2022-11-16T11:51:34.117Z,7.90
2022-11-16T11:54:03.720Z,8.40
2022-11-16T11:56:34.270Z,7.00
2022-11-16T11:59:04.403Z,7.20
2022-11-16T12:01:55.977Z,6.80
2022-11-16T12:04:58.390Z,6.32
2022-11-16T12:07:46.294Z,6.35
2022-11-16T12:10:34.866Z,6.07
2022-11-16T12:13:29.813Z,6.35
2022-11-16T12:16:37.573Z,5.60
2022-11-16T12:19:30.620Z,6.35
2022-11-16T12:22:26.178Z,5.60
2022-11-16T12:25:25.052Z,5.95
2022-11-16T12:28:13.586Z,7.25
2022-11-16T12:31:01.427Z,6.72
2022-11-16T12:33:43.152Z,6.38
2022-11-16T12:36:31.492Z,6.80
2022-11-16T12:39:24.808Z,6.10
2022-11-16T12:42:21.766Z,6.38
2022-11-16T12:45:26.410Z,6.80
2022-11-16T12:48:12.303Z,6.63
2022-11-16T12:51:00.035Z,7.93
2022-11-16T12:53:55.591Z,8.05
2022-11-16T12:56:34.655Z,9.25
2022-11-16T12:59:16.922Z,9.00
2022-11-16T13:02:21.254Z,9.75
2022-11-16T13:04:53.072Z,10.18
2022-11-16T13:07:23.131Z,11.07
2022-11-16T13:10:01.001Z,9.63
2022-11-16T13:12:29.667Z,9.75
2022-11-16T13:14:59.385Z,9.00
2022-11-16T13:17:31.044Z,9.50
2022-11-16T13:20:22.584Z,9.13
2022-11-16T13:23:22.725Z,9.13
2022-11-16T13:26:11.686Z,8.38
2022-11-16T13:29:07.895Z,8.38
2022-11-16T13:31:41.595Z,7.72
2022-11-16T13:36:58.997Z,7.63
2022-11-16T13:40:01.501Z,8.25
2022-11-16T13:42:30.246Z,7.60
2022-11-16T13:45:17.693Z,7.30
2022-11-16T13:47:56.746Z,7.40
2022-11-16T13:50:38.056Z,8.50
2022-11-16T13:58:29.666Z,6.97
2022-11-16T14:06:13.070Z,9.00
2022-11-16T14:08:39.968Z,11.65
2022-11-16T14:11:38.791Z,9.90
2022-11-16T14:14:33.002Z,11.50
2022-11-16T15:18:34.932Z,17.38
2022-11-16T15:21:01.997Z,18.67
2022-11-16T15:28:29.572Z,17.05
2022-11-16T15:31:04.372Z,17.75
2022-11-16T15:33:36.219Z,18.27
2022-11-16T15:36:37.965Z,17.10
2022-11-16T15:39:06.825Z,18.27
2022-11-16T15:41:34.428Z,18.63
2022-11-16T15:44:17.793Z,20.83
2022-11-16T15:46:48.982Z,19.98
2022-11-16T15:49:38.267Z,19.60
2022-11-16T15:52:05.695Z,19.90
2022-11-16T15:54:54.859Z,19.83
2022-11-16T15:57:23.894Z,21.83
2022-11-16T15:59:55.830Z,23.85
2022-11-16T16:02:27.591Z,21.42
2022-11-16T16:04:54.611Z,20.60
2022-11-16T16:07:39.460Z,20.38
2022-11-16T16:10:19.965Z,18.33
2022-11-16T16:12:54.391Z,19.90
2022-11-16T16:15:30.066Z,25.88
2022-11-16T16:17:58.895Z,18.88
2022-11-16T16:20:28.906Z,18.83
2022-11-16T16:23:11.474Z,20.25
2022-11-16T16:25:39.059Z,19.92
2022-11-16T16:28:06.193Z,19.27
2022-11-16T16:30:34.787Z,19.38
2022-11-16T16:33:02.392Z,22.27
2022-11-16T16:35:29.504Z,21.60
2022-11-16T16:38:01.483Z,20.17
2022-11-16T16:40:29.347Z,20.63
2022-11-16T16:42:57.889Z,21.23
2022-11-16T16:45:38.726Z,21.30
2022-11-16T16:48:06.914Z,19.83
2022-11-16T16:50:33.866Z,23.00
2022-11-16T16:53:00.925Z,22.20
2022-11-16T16:55:29.734Z,27.10
2022-11-16T16:57:59.501Z,67.15
2022-11-16T17:00:27.184Z,31.85
2022-11-16T17:02:54.349Z,32.97
2022-11-16T17:05:21.321Z,25.55
2022-11-16T17:07:48.344Z,24.30
2022-11-16T17:10:15.995Z,23.48
2022-11-16T17:12:44.319Z,26.60
2022-11-16T17:15:16.460Z,24.02
2022-11-16T17:17:46.210Z,24.17
2022-11-16T17:20:13.414Z,24.52
2022-11-16T17:22:41.947Z,23.58
2022-11-16T17:25:09.915Z,23.55
2022-11-16T17:27:37.340Z,23.40
2022-11-16T17:30:04.794Z,24.35
2022-11-16T17:32:32.354Z,25.33
2022-11-16T17:34:59.297Z,26.20
2022-11-16T17:37:26.286Z,24.45
2022-11-16T17:39:53.303Z,27.25
2022-11-16T17:42:20.302Z,26.23
2022-11-16T17:44:47.242Z,26.42
2022-11-16T17:47:14.208Z,27.02
2022-11-16T17:49:41.124Z,25.90
2022-11-16T17:52:08.035Z,26.98
2022-11-16T17:54:34.982Z,26.45
2022-11-16T17:57:02.016Z,24.55
2022-11-16T17:59:29.964Z,25.15
2022-11-16T18:01:58.058Z,24.23
2022-11-16T18:04:25.188Z,25.88
2022-11-16T18:06:52.370Z,26.88
2022-11-16T18:09:19.393Z,24.90
2022-11-16T18:11:46.440Z,25.20
2022-11-16T18:14:13.393Z,25.67
2022-11-16T18:16:44.389Z,28.02
2022-11-16T18:19:16.940Z,30.17
2022-11-16T18:24:13.908Z,27.38
2022-11-16T18:26:41.764Z,27.45
2022-11-16T18:29:12.701Z,27.27
2022-11-16T18:31:39.834Z,26.48
2022-11-16T18:34:06.792Z,29.15
2022-11-16T18:36:33.838Z,28.50
2022-11-16T18:39:00.865Z,27.85
2022-11-16T18:41:29.958Z,31.73
2022-11-16T18:43:59.543Z,26.70
2022-11-16T18:46:29.483Z,27.25
2022-11-16T18:48:57.079Z,28.73
2022-11-16T18:51:26.139Z,27.15
2022-11-16T18:53:53.789Z,28.27
2022-11-16T18:56:21.036Z,26.65
2022-11-16T18:58:50.757Z,27.70
2022-11-16T19:01:19.790Z,25.85
2022-11-16T19:03:46.895Z,26.00
2022-11-16T19:06:17.141Z,27.38
2022-11-16T19:08:46.884Z,26.08
2022-11-16T19:11:17.359Z,26.30
2022-11-16T19:13:45.090Z,25.50
2022-11-16T19:16:13.647Z,28.23
2022-11-16T19:18:41.057Z,27.48
2022-11-16T19:21:16.083Z,29.85
2022-11-16T19:23:46.001Z,28.67
2022-11-16T19:26:14.915Z,30.42
2022-11-16T19:28:43.987Z,26.00
2022-11-16T19:31:16.307Z,26.05
2022-11-16T19:33:44.523Z,26.13
2022-11-16T19:36:16.925Z,26.42
2022-11-16T19:38:45.188Z,25.38
2022-11-16T19:41:13.526Z,27.45
2022-11-16T19:43:41.044Z,27.05
2022-11-16T19:46:21.289Z,29.10
2022-11-16T19:48:49.479Z,28.33
2022-11-16T19:51:19.588Z,31.75
2022-11-16T19:53:46.967Z,29.98
2022-11-16T19:56:16.511Z,28.15
2022-11-16T19:58:44.196Z,31.58
2022-11-16T20:01:29.146Z,27.73
2022-11-16T20:03:58.728Z,26.42
2022-11-16T20:06:29.067Z,27.38
2022-11-16T20:09:00.563Z,28.63
2022-11-16T20:11:29.062Z,27.30
2022-11-16T20:13:57.541Z,27.42
2022-11-16T20:16:27.185Z,23.85
2022-11-16T20:18:54.731Z,20.38
2022-11-16T20:21:23.006Z,18.42
2022-11-16T20:23:53.872Z,15.32
2022-11-16T20:26:21.870Z,11.55
2022-11-16T20:28:53.288Z,11.98
2022-11-16T20:31:31.547Z,12.02
2022-11-16T20:34:00.466Z,11.93
2022-11-16T20:36:29.498Z,10.35
2022-11-16T20:38:57.610Z,11.00
2022-11-16T20:41:30.023Z,10.85
2022-11-16T20:44:02.722Z,10.68
2022-11-16T20:46:32.150Z,9.95
2022-11-16T20:49:01.624Z,11.38
2022-11-16T20:51:30.457Z,10.20
2022-11-16T20:53:57.796Z,10.70
2022-11-16T20:56:24.739Z,9.90
2022-11-16T20:58:51.741Z,10.75
2022-11-16T21:01:28.498Z,10.57
2022-11-16T21:03:56.671Z,10.85
2022-11-16T21:06:23.885Z,10.43
2022-11-16T21:08:50.935Z,10.48
2022-11-16T21:11:21.021Z,9.60
2022-11-16T21:14:06.897Z,9.02
2022-11-16T21:16:34.747Z,9.65
2022-11-16T21:19:02.093Z,10.00
2022-11-16T21:21:29.438Z,9.98
2022-11-16T21:23:56.469Z,10.13
2022-11-16T21:26:25.916Z,10.70
2022-11-16T21:28:53.165Z,10.50
2022-11-16T21:31:25.496Z,10.45
2022-11-16T21:33:53.589Z,12.32
2022-11-16T21:36:23.067Z,10.85
2022-11-16T21:38:50.637Z,10.90
2022-11-16T21:41:19.547Z,11.02
2022-11-16T21:43:46.949Z,11.38
2022-11-16T21:46:22.318Z,10.93
2022-11-16T21:48:51.213Z,11.15
2022-11-16T21:51:21.029Z,10.43
2022-11-16T21:53:48.330Z,10.07
2022-11-16T21:56:20.654Z,9.57
2022-11-16T21:58:50.012Z,9.93
2022-11-16T22:01:17.108Z,9.73
2022-11-16T22:03:44.915Z,11.48
2022-11-16T22:06:34.752Z,10.27
2022-11-16T22:09:01.731Z,9.77
2022-11-16T22:11:28.772Z,11.57
2022-11-16T22:13:55.688Z,9.73
2022-11-16T22:16:23.617Z,11.90
2022-11-16T22:18:50.946Z,10.82
2022-11-16T22:21:18.072Z,10.38
2022-11-16T22:23:45.282Z,10.63
2022-11-16T22:26:13.676Z,10.30
2022-11-16T22:28:40.908Z,11.75
2022-11-16T22:31:15.096Z,11.65
2022-11-16T22:33:42.418Z,12.30
2022-11-16T22:36:10.732Z,10.13
2022-11-16T22:38:38.279Z,10.00
2022-11-16T22:41:05.409Z,9.80
2022-11-16T22:43:33.145Z,9.75
2022-11-16T22:46:02.225Z,8.98
2022-11-16T22:48:31.387Z,8.73
2022-11-16T22:51:03.361Z,9.68
2022-11-16T22:53:30.310Z,8.70
2022-11-16T22:56:06.803Z,8.95
2022-11-16T22:58:35.579Z,8.27
2022-11-16T23:01:02.889Z,9.07
2022-11-16T23:03:30.146Z,7.13
2022-11-16T23:05:57.185Z,7.18
2022-11-16T23:08:24.891Z,7.43
2022-11-16T23:11:23.858Z,6.07
2022-11-16T23:14:11.539Z,5.63
2022-11-16T23:16:39.748Z,5.60
2022-11-16T23:19:26.982Z,5.50
2022-11-16T23:22:13.130Z,4.95
2022-11-16T23:24:58.671Z,5.15
2022-11-16T23:27:33.126Z,7.05
2022-11-16T23:30:10.923Z,4.60
2022-11-16T23:32:39.575Z,3.67
2022-11-16T23:35:07.023Z,4.13
2022-11-16T23:37:34.019Z,3.72
2022-11-16T23:40:01.010Z,4.25
2022-11-16T23:42:46.511Z,3.53
2022-11-16T23:45:13.510Z,3.50
2022-11-16T23:47:40.459Z,3.15
2022-11-16T23:50:07.656Z,3.60
2022-11-16T23:52:34.554Z,2.90
2022-11-16T23:55:01.481Z,2.88
2022-11-16T23:57:28.413Z,3.10
2022-11-16T23:59:55.292Z,3.78
